createdAt,value
2019-02-08T00:01:33.682Z,80.77
2019-02-08T00:04:07.373Z,79.73
2019-02-08T00:06:40.972Z,80.80
2019-02-08T00:09:14.599Z,85.33
2019-02-08T00:11:48.171Z,87.63
2019-02-08T00:14:21.943Z,80.03
2019-02-08T00:16:55.623Z,74.83
2019-02-08T00:19:29.378Z,75.43
2019-02-08T00:22:03.147Z,77.27
2019-02-08T00:24:37.195Z,85.90
2019-02-08T00:27:10.849Z,82.67
2019-02-08T00:29:44.497Z,81.93
2019-02-08T00:32:18.127Z,78.63
2019-02-08T00:34:51.721Z,79.17
2019-02-08T00:37:25.417Z,77.43
2019-02-08T00:39:59.077Z,75.97
2019-02-08T00:42:32.704Z,79.73
2019-02-08T00:45:09.749Z,70.90
2019-02-08T00:47:43.617Z,76.37
2019-02-08T00:50:20.143Z,78.27
2019-02-08T00:52:54.395Z,71.60
2019-02-08T00:55:28.238Z,72.47
2019-02-08T00:58:02.407Z,67.97
2019-02-08T01:00:36.131Z,78.87
2019-02-08T01:03:09.922Z,72.20
2019-02-08T01:05:43.521Z,72.43
2019-02-08T01:08:17.147Z,70.10
2019-02-08T01:10:50.805Z,64.93
2019-02-08T01:13:24.460Z,64.90
2019-02-08T01:15:58.111Z,69.73
2019-02-08T01:18:31.895Z,67.93
2019-02-08T01:21:05.611Z,72.37
2019-02-08T01:23:41.189Z,74.60
2019-02-08T01:26:14.612Z,68.77
2019-02-08T01:28:48.245Z,64.73
2019-02-08T01:31:22.099Z,66.53
2019-02-08T01:33:55.861Z,64.13
2019-02-08T01:36:29.526Z,61.73
2019-02-08T01:39:04.466Z,67.33
2019-02-08T01:41:38.103Z,67.43
2019-02-08T01:44:11.828Z,59.40
2019-02-08T01:46:45.459Z,58.87
2019-02-08T01:49:19.277Z,54.67
2019-02-08T01:51:52.983Z,67.23
2019-02-08T01:54:26.644Z,63.27
2019-02-08T01:57:00.335Z,54.20
2019-02-08T01:59:33.989Z,59.13
2019-02-08T02:02:07.773Z,52.97
2019-02-08T02:04:41.491Z,54.30
2019-02-08T02:07:15.201Z,57.37
2019-02-08T02:09:49.019Z,59.17
2019-02-08T02:12:22.638Z,56.10
2019-02-08T02:14:56.299Z,56.83
2019-02-08T02:17:29.965Z,55.20
2019-02-08T02:20:06.913Z,50.03
2019-02-08T02:22:40.504Z,52.67
2019-02-08T02:25:15.771Z,50.67
2019-02-08T02:27:49.427Z,52.23
2019-02-08T02:30:25.920Z,49.77
2019-02-08T02:32:59.738Z,50.43
2019-02-08T02:35:33.605Z,56.10
2019-02-08T02:38:07.634Z,48.40
2019-02-08T02:40:41.398Z,51.80
2019-02-08T02:43:15.059Z,50.20
2019-02-08T02:45:48.651Z,49.87
2019-02-08T02:48:22.370Z,44.97
2019-02-08T02:50:56.030Z,48.43
2019-02-08T02:53:29.657Z,44.53
2019-02-08T02:56:03.332Z,43.20
2019-02-08T02:58:37.761Z,48.33
2019-02-08T03:01:11.429Z,41.97
2019-02-08T03:03:45.224Z,43.67
2019-02-08T03:06:18.804Z,41.53
2019-02-08T03:08:52.442Z,40.73
2019-02-08T03:11:26.120Z,44.80
2019-02-08T03:13:59.699Z,44.43
2019-02-08T03:16:33.371Z,44.87
2019-02-08T03:19:07.093Z,41.40
2019-02-08T03:21:40.757Z,42.07
2019-02-08T03:24:14.429Z,43.23
2019-02-08T03:26:48.070Z,39.33
2019-02-08T03:29:21.698Z,42.53
2019-02-08T03:31:55.353Z,43.57
2019-02-08T03:34:29.079Z,43.87
2019-02-08T03:37:02.709Z,45.50
2019-02-08T03:39:36.295Z,45.13
2019-02-08T03:42:09.983Z,38.53
2019-02-08T03:44:43.583Z,40.23
2019-02-08T03:47:17.212Z,48.03
2019-02-08T03:49:50.878Z,41.33
2019-02-08T03:52:24.499Z,41.23
2019-02-08T03:54:58.167Z,44.73
2019-02-08T03:57:31.828Z,44.33
2019-02-08T04:00:30.736Z,42.90
2019-02-08T04:03:04.679Z,40.67
2019-02-08T04:05:38.390Z,43.17
2019-02-08T04:08:12.112Z,44.30
2019-02-08T04:10:45.880Z,46.37
2019-02-08T04:13:19.551Z,42.97
2019-02-08T04:15:53.269Z,44.40
2019-02-08T04:18:26.920Z,41.13
2019-02-08T04:21:00.544Z,41.70
2019-02-08T04:23:34.124Z,46.70
2019-02-08T04:26:07.897Z,44.83
2019-02-08T04:28:41.491Z,46.97
2019-02-08T04:31:15.109Z,41.37
2019-02-08T04:33:48.727Z,45.67
2019-02-08T04:36:22.389Z,46.20
2019-02-08T04:38:56.062Z,46.10
2019-02-08T04:41:29.595Z,47.57
2019-02-08T04:44:03.206Z,44.23
2019-02-08T04:46:36.808Z,49.50
2019-02-08T04:49:10.446Z,47.93
2019-02-08T04:51:44.039Z,46.63
2019-02-08T04:54:17.648Z,44.80
2019-02-08T04:56:51.299Z,52.23
2019-02-08T04:59:24.986Z,49.33
2019-02-08T05:01:58.746Z,47.00
2019-02-08T05:04:32.535Z,47.53
2019-02-08T05:07:06.180Z,48.87
2019-02-08T05:09:40.057Z,44.03
2019-02-08T05:12:13.611Z,51.67
2019-02-08T05:14:47.252Z,49.63
2019-02-08T05:17:20.891Z,49.07
2019-02-08T05:19:54.612Z,53.30
2019-02-08T05:22:28.196Z,47.57
2019-02-08T05:25:01.808Z,51.00
2019-02-08T05:27:35.442Z,48.50
2019-02-08T05:30:23.961Z,52.50
2019-02-08T05:32:57.713Z,50.50
2019-02-08T05:35:31.449Z,51.83
2019-02-08T05:38:05.820Z,48.97
2019-02-08T05:40:39.502Z,56.70
2019-02-08T05:43:13.194Z,51.83
2019-02-08T05:45:46.838Z,56.70
2019-02-08T05:48:20.460Z,51.10
2019-02-08T05:50:54.046Z,50.87
2019-02-08T05:53:27.730Z,53.13
2019-02-08T05:56:01.312Z,51.30
2019-02-08T05:58:34.986Z,51.10
2019-02-08T06:01:08.582Z,52.13
2019-02-08T06:03:42.571Z,50.03
2019-02-08T06:06:16.159Z,52.67
2019-02-08T06:08:49.907Z,55.27
2019-02-08T06:11:23.482Z,52.47
2019-02-08T06:13:57.169Z,55.20
2019-02-08T06:16:31.726Z,53.93
2019-02-08T06:19:05.666Z,53.73
2019-02-08T06:21:39.286Z,57.23
2019-02-08T06:24:13.012Z,52.07
2019-02-08T06:26:46.722Z,55.63
2019-02-08T06:29:20.397Z,60.93
2019-02-08T06:31:54.035Z,52.00
2019-02-08T06:34:30.146Z,53.27
2019-02-08T06:37:03.914Z,56.00
2019-02-08T06:39:37.508Z,50.50
2019-02-08T06:42:11.277Z,49.97
2019-02-08T06:44:44.868Z,52.97
2019-02-08T06:47:18.555Z,52.40
2019-02-08T06:49:52.096Z,52.50
2019-02-08T06:52:26.146Z,54.37
2019-02-08T06:54:59.734Z,49.93
2019-02-08T06:57:35.096Z,48.47
2019-02-08T07:00:24.865Z,48.67
2019-02-08T07:03:09.312Z,53.90
2019-02-08T07:06:02.748Z,47.67
2019-02-08T07:08:54.819Z,46.77
2019-02-08T07:11:35.604Z,47.70
2019-02-08T07:14:27.246Z,50.30
2019-02-08T07:17:18.749Z,47.03
2019-02-08T07:19:54.561Z,49.17
2019-02-08T07:22:42.089Z,53.33
2019-02-08T07:25:32.398Z,58.77
2019-02-08T07:28:10.542Z,52.80
2019-02-08T07:30:51.480Z,47.80
2019-02-08T07:33:38.569Z,49.43
2019-02-08T07:36:30.822Z,49.77
2019-02-08T07:39:25.801Z,46.33
2019-02-08T07:42:03.843Z,41.00
2019-02-08T07:44:43.610Z,50.90
2019-02-08T07:47:22.168Z,39.87
2019-02-08T07:49:57.562Z,42.37
2019-02-08T07:52:35.644Z,46.60
2019-02-08T07:55:16.432Z,43.17
2019-02-08T07:57:51.772Z,43.07
2019-02-08T08:00:45.964Z,46.07
2019-02-08T08:03:37.686Z,37.03
2019-02-08T08:06:18.848Z,42.27
2019-02-08T08:09:02.951Z,40.17
2019-02-08T08:11:43.875Z,41.17
2019-02-08T08:14:19.297Z,41.70
2019-02-08T08:17:10.718Z,35.03
2019-02-08T08:19:46.541Z,38.30
2019-02-08T08:22:24.805Z,40.73
2019-02-08T08:25:10.924Z,42.20
2019-02-08T08:27:52.231Z,42.80
2019-02-08T08:30:32.400Z,45.80
2019-02-08T08:33:12.989Z,39.73
2019-02-08T08:36:01.861Z,36.10
2019-02-08T08:38:44.527Z,33.10
2019-02-08T08:41:46.800Z,33.53
2019-02-08T08:44:26.171Z,34.93
2019-02-08T08:47:36.109Z,33.23
2019-02-08T08:50:28.122Z,35.37
2019-02-08T08:53:38.182Z,34.40
2019-02-08T08:56:14.881Z,35.77
2019-02-08T09:02:32.765Z,35.03
2019-02-08T09:05:09.482Z,41.20
2019-02-08T09:07:58.219Z,35.43
2019-02-08T09:11:09.798Z,38.13
2019-02-08T09:17:26.702Z,37.10
2019-02-08T09:20:31.733Z,34.17
2019-02-08T09:23:16.625Z,42.27
2019-02-08T09:29:19.549Z,34.60
2019-02-08T09:32:05.079Z,36.93
2019-02-08T09:35:04.516Z,52.70
2019-02-08T09:37:43.710Z,43.23
2019-02-08T09:40:37.173Z,39.50
2019-02-08T09:43:16.931Z,35.07
2019-02-08T09:46:11.123Z,46.23
2019-02-08T09:48:53.667Z,36.73
2019-02-08T09:51:47.394Z,37.23
2019-02-08T09:54:23.061Z,33.93
2019-02-08T09:57:16.261Z,40.93
2019-02-08T09:59:58.225Z,38.57
2019-02-08T10:02:56.972Z,34.97
2019-02-08T10:05:36.145Z,44.67
2019-02-08T10:08:36.984Z,38.37
2019-02-08T10:14:24.395Z,39.97
2019-02-08T10:17:29.627Z,39.00
2019-02-08T10:20:25.809Z,34.07
2019-02-08T10:23:25.221Z,37.00
2019-02-08T10:26:16.635Z,39.40
2019-02-08T10:29:13.277Z,36.37
2019-02-08T10:32:15.697Z,39.37
2019-02-08T10:38:30.948Z,37.17
2019-02-08T10:41:19.645Z,36.10
2019-02-08T10:44:29.383Z,34.63
2019-02-08T10:47:36.126Z,40.27
2019-02-08T10:50:41.453Z,36.20
2019-02-08T10:53:42.016Z,40.57
2019-02-08T10:56:38.342Z,37.53
2019-02-08T10:59:29.903Z,40.37
2019-02-08T11:02:23.765Z,38.50
2019-02-08T11:05:23.011Z,40.40
2019-02-08T11:08:17.611Z,33.17
2019-02-08T11:11:28.874Z,37.63
2019-02-08T11:17:16.295Z,37.30
2019-02-08T11:19:57.276Z,33.80
2019-02-08T11:22:30.897Z,38.40
2019-02-08T11:25:07.841Z,36.90
2019-02-08T11:27:41.555Z,33.20
2019-02-08T11:30:17.561Z,34.30
2019-02-08T11:32:51.295Z,30.37
2019-02-08T11:35:25.069Z,33.33
2019-02-08T11:37:58.719Z,32.77
2019-02-08T11:40:32.479Z,31.67
2019-02-08T11:43:06.139Z,34.40
2019-02-08T11:45:39.837Z,36.00
2019-02-08T11:48:13.485Z,32.40
2019-02-08T11:50:47.129Z,36.13
2019-02-08T11:53:20.833Z,32.40
2019-02-08T11:55:54.537Z,35.33
2019-02-08T11:58:28.609Z,34.97
2019-02-08T12:01:02.370Z,38.23
2019-02-08T12:03:36.035Z,31.40
2019-02-08T12:06:09.801Z,33.37
2019-02-08T12:08:43.526Z,29.63
2019-02-08T12:11:17.636Z,34.03
2019-02-08T12:13:51.307Z,29.93
2019-02-08T12:16:25.061Z,31.50
2019-02-08T12:18:59.306Z,31.13
2019-02-08T12:21:33.039Z,32.60
2019-02-08T12:24:07.045Z,36.30
2019-02-08T12:26:40.865Z,29.43
2019-02-08T12:29:14.694Z,28.47
2019-02-08T12:31:48.450Z,31.57
2019-02-08T12:34:22.098Z,31.50
2019-02-08T12:36:55.849Z,37.13
2019-02-08T12:39:29.526Z,33.93
2019-02-08T12:42:03.254Z,33.00
2019-02-08T12:44:36.919Z,30.70
2019-02-08T12:47:10.519Z,30.47
2019-02-08T12:49:44.119Z,30.00
2019-02-08T12:52:17.905Z,28.20
2019-02-08T12:54:51.549Z,32.67
2019-02-08T12:57:25.331Z,32.10
2019-02-08T12:59:58.931Z,28.93
2019-02-08T13:02:33.946Z,33.80
2019-02-08T13:05:10.085Z,34.00
2019-02-08T13:07:43.722Z,30.80
2019-02-08T13:10:26.159Z,27.97
2019-02-08T13:12:59.813Z,29.57
2019-02-08T13:15:33.387Z,29.60
2019-02-08T13:18:07.091Z,35.17
2019-02-08T13:20:40.734Z,30.07
2019-02-08T13:23:14.417Z,32.40
2019-02-08T13:25:48.035Z,33.40
2019-02-08T13:28:22.998Z,30.83
2019-02-08T13:30:56.923Z,25.80
2019-02-08T13:33:32.103Z,22.47
2019-02-08T13:36:09.112Z,35.43
2019-02-08T13:38:45.335Z,29.17
2019-02-08T13:41:23.030Z,34.03
2019-02-08T13:43:58.712Z,35.73
2019-02-08T13:46:33.744Z,28.03
2019-02-08T13:49:07.660Z,28.10
2019-02-08T13:51:41.246Z,32.37
2019-02-08T13:54:15.230Z,30.10
2019-02-08T13:57:00.354Z,28.27
2019-02-08T13:59:30.740Z,25.17
2019-02-08T14:02:04.452Z,26.20
2019-02-08T14:04:39.230Z,24.30
2019-02-08T14:07:13.161Z,23.47
2019-02-08T14:09:47.732Z,31.43
2019-02-08T14:12:22.225Z,29.80
2019-02-08T14:14:56.315Z,33.40
2019-02-08T14:17:31.120Z,33.53
2019-02-08T14:20:09.522Z,31.83
2019-02-08T14:22:45.153Z,33.27
2019-02-08T14:25:21.835Z,29.57
2019-02-08T14:27:55.598Z,31.63
2019-02-08T14:30:32.149Z,34.27
2019-02-08T14:33:05.914Z,31.77
2019-02-08T14:35:39.756Z,32.33
2019-02-08T14:38:16.786Z,41.00
2019-02-08T14:40:50.380Z,31.70
2019-02-08T14:43:24.017Z,28.73
2019-02-08T14:46:00.035Z,34.27
2019-02-08T14:48:33.726Z,32.83
2019-02-08T14:51:07.353Z,31.17
2019-02-08T14:53:41.002Z,27.17
2019-02-08T14:56:14.625Z,45.50
2019-02-08T14:58:48.498Z,32.20
2019-02-08T15:01:22.165Z,30.57
2019-02-08T15:03:55.843Z,27.57
2019-02-08T15:06:30.126Z,34.07
2019-02-08T15:09:05.286Z,33.17
2019-02-08T15:11:38.875Z,32.37
2019-02-08T15:14:12.676Z,27.67
2019-02-08T15:16:46.382Z,27.63
2019-02-08T15:19:20.043Z,31.30
2019-02-08T15:21:53.769Z,33.03
2019-02-08T15:24:27.362Z,35.23
2019-02-08T15:27:01.196Z,38.80
2019-02-08T15:29:34.791Z,33.73
2019-02-08T15:32:08.430Z,31.67
2019-02-08T15:34:43.782Z,35.03
2019-02-08T15:37:18.060Z,31.97
2019-02-08T15:39:51.804Z,34.33
2019-02-08T15:42:25.994Z,34.47
2019-02-08T15:44:59.580Z,30.47
2019-02-08T15:47:33.208Z,34.93
2019-02-08T15:50:08.783Z,34.50
2019-02-08T15:52:42.372Z,36.40
2019-02-08T15:55:27.902Z,39.47
2019-02-08T15:58:01.577Z,39.50
2019-02-08T16:00:35.446Z,39.33
2019-02-08T16:03:10.478Z,37.93
2019-02-08T16:05:44.430Z,39.07
2019-02-08T16:08:18.326Z,38.73
2019-02-08T16:10:53.971Z,38.17
2019-02-08T16:13:29.952Z,40.97
2019-02-08T16:16:04.279Z,37.43
2019-02-08T16:18:37.923Z,44.60
2019-02-08T16:21:12.192Z,38.23
2019-02-08T16:23:45.875Z,37.97
2019-02-08T16:26:19.560Z,43.53
2019-02-08T16:28:53.248Z,44.57
2019-02-08T16:31:26.982Z,43.13
2019-02-08T16:34:00.702Z,36.17
2019-02-08T16:36:34.487Z,41.33
2019-02-08T16:39:09.410Z,45.13
2019-02-08T16:41:43.065Z,34.13
2019-02-08T16:44:16.792Z,36.17
2019-02-08T16:46:50.521Z,36.47
2019-02-08T16:49:24.072Z,38.10
2019-02-08T16:51:57.739Z,39.23
2019-02-08T16:54:31.455Z,34.57
2019-02-08T16:57:05.514Z,41.83
2019-02-08T16:59:39.428Z,34.70
2019-02-08T17:02:13.249Z,40.67
2019-02-08T17:04:46.900Z,34.70
2019-02-08T17:07:20.526Z,38.20
2019-02-08T17:09:54.284Z,37.93
2019-02-08T17:12:28.291Z,38.83
2019-02-08T17:15:02.007Z,37.43
2019-02-08T17:17:35.635Z,36.37
2019-02-08T17:20:17.930Z,38.03
2019-02-08T17:22:51.891Z,38.40
2019-02-08T17:25:26.024Z,39.83
2019-02-08T17:28:00.507Z,38.20
2019-02-08T17:30:34.241Z,37.83
2019-02-08T17:33:09.113Z,38.13
2019-02-08T17:35:42.821Z,38.70
2019-02-08T17:38:16.728Z,37.13
2019-02-08T17:40:50.771Z,38.27
2019-02-08T17:43:24.604Z,36.50
2019-02-08T17:45:58.329Z,37.03
2019-02-08T17:48:32.109Z,38.00
2019-02-08T17:51:05.856Z,37.23
2019-02-08T17:53:39.670Z,38.70
2019-02-08T17:56:13.324Z,36.97
2019-02-08T17:58:46.926Z,38.20
2019-02-08T18:01:20.595Z,39.67
2019-02-08T18:03:54.235Z,36.53
2019-02-08T18:06:27.951Z,41.57
2019-02-08T18:09:01.609Z,37.23
2019-02-08T18:11:35.206Z,39.40
2019-02-08T18:14:08.973Z,43.67
2019-02-08T18:16:42.640Z,38.70
2019-02-08T18:19:16.253Z,40.10
2019-02-08T18:21:49.981Z,39.90
2019-02-08T18:24:23.683Z,43.63
2019-02-08T18:26:57.503Z,41.33
2019-02-08T18:29:31.141Z,42.27
2019-02-08T18:32:04.813Z,44.13
2019-02-08T18:34:38.530Z,39.90
2019-02-08T18:37:12.313Z,41.93
2019-02-08T18:39:45.947Z,44.53
2019-02-08T18:42:19.619Z,41.13
2019-02-08T18:44:53.424Z,35.77
2019-02-08T18:47:27.059Z,39.37
2019-02-08T18:50:00.814Z,37.60
2019-02-08T18:52:34.473Z,39.07
2019-02-08T18:55:08.197Z,40.47
2019-02-08T18:57:41.785Z,46.77
2019-02-08T19:00:18.628Z,38.97
2019-02-08T19:02:52.357Z,45.20
2019-02-08T19:05:26.188Z,36.63
2019-02-08T19:07:59.845Z,40.30
2019-02-08T19:10:33.631Z,40.93
2019-02-08T19:13:07.391Z,44.27
2019-02-08T19:15:41.403Z,45.67
2019-02-08T19:18:15.070Z,46.60
2019-02-08T19:20:48.707Z,41.80
2019-02-08T19:23:22.304Z,48.10
2019-02-08T19:25:55.931Z,49.03
2019-02-08T19:28:29.567Z,42.43
2019-02-08T19:31:03.215Z,47.37
2019-02-08T19:33:36.819Z,42.27
2019-02-08T19:36:10.455Z,37.90
2019-02-08T19:38:44.133Z,45.37
2019-02-08T19:41:17.908Z,44.43
2019-02-08T19:43:51.483Z,44.30
2019-02-08T19:46:25.117Z,40.10
2019-02-08T19:48:58.769Z,38.70
2019-02-08T19:51:32.490Z,42.63
2019-02-08T19:54:06.225Z,49.10
2019-02-08T19:56:39.856Z,37.80
2019-02-08T19:59:13.500Z,38.03
2019-02-08T20:01:47.215Z,40.77
2019-02-08T20:04:20.826Z,42.70
2019-02-08T20:06:54.707Z,42.43
2019-02-08T20:09:28.353Z,43.53
2019-02-08T20:12:01.995Z,42.47
2019-02-08T20:14:35.661Z,41.97
2019-02-08T20:17:09.570Z,38.00
2019-02-08T20:19:43.154Z,37.47
2019-02-08T20:22:17.039Z,38.57
2019-02-08T20:24:50.952Z,41.20
2019-02-08T20:27:24.539Z,43.37
2019-02-08T20:29:58.302Z,37.83
2019-02-08T20:32:32.030Z,38.73
2019-02-08T20:35:08.986Z,36.10
2019-02-08T20:37:49.687Z,44.27
2019-02-08T20:40:34.316Z,33.60
2019-02-08T20:43:08.201Z,41.70
2019-02-08T20:45:41.759Z,40.33
2019-02-08T20:48:17.921Z,40.43
2019-02-08T20:50:51.784Z,34.93
2019-02-08T20:53:25.633Z,43.07
2019-02-08T20:55:59.611Z,35.50
2019-02-08T20:58:34.778Z,39.43
2019-02-08T21:01:08.666Z,44.07
2019-02-08T21:03:42.396Z,41.20
2019-02-08T21:06:16.004Z,38.07
2019-02-08T21:08:49.812Z,38.90
2019-02-08T21:11:23.607Z,35.80
2019-02-08T21:13:57.319Z,38.20
2019-02-08T21:16:31.269Z,41.70
2019-02-08T21:19:05.044Z,35.90
2019-02-08T21:21:38.786Z,35.73
2019-02-08T21:24:12.438Z,34.60
2019-02-08T21:26:46.222Z,36.27
2019-02-08T21:29:19.944Z,35.73
2019-02-08T21:31:53.602Z,35.27
2019-02-08T21:34:27.210Z,39.43
2019-02-08T21:37:01.006Z,38.97
2019-02-08T21:39:34.731Z,39.03
2019-02-08T21:42:08.553Z,38.73
2019-02-08T21:44:42.332Z,37.63
2019-02-08T21:47:15.946Z,34.27
2019-02-08T21:49:49.672Z,35.87
2019-02-08T21:52:23.323Z,42.30
2019-02-08T21:54:57.332Z,41.00
2019-02-08T21:57:30.985Z,40.20
2019-02-08T22:00:10.545Z,34.90
2019-02-08T22:02:44.397Z,40.00
2019-02-08T22:05:20.361Z,40.33
2019-02-08T22:07:54.187Z,40.60
2019-02-08T22:10:28.068Z,44.43
2019-02-08T22:13:01.782Z,40.80
2019-02-08T22:15:38.432Z,44.97
2019-02-08T22:18:12.216Z,38.57
2019-02-08T22:20:46.105Z,43.83
2019-02-08T22:23:19.896Z,40.53
2019-02-08T22:25:53.792Z,42.07
2019-02-08T22:28:27.462Z,39.80
2019-02-08T22:31:01.270Z,43.07
2019-02-08T22:33:35.068Z,43.93
2019-02-08T22:36:08.826Z,43.47
2019-02-08T22:38:42.502Z,38.63
2019-02-08T22:41:16.203Z,41.53
2019-02-08T22:43:49.798Z,40.67
2019-02-08T22:46:23.564Z,41.00
2019-02-08T22:48:57.520Z,39.73
2019-02-08T22:51:31.410Z,35.13
2019-02-08T22:54:05.360Z,41.53
2019-02-08T22:56:39.006Z,35.70
2019-02-08T22:59:12.644Z,39.93
2019-02-08T23:01:48.397Z,35.07
2019-02-08T23:04:22.064Z,43.93
2019-02-08T23:06:56.100Z,39.03
2019-02-08T23:09:30.050Z,41.63
2019-02-08T23:12:04.640Z,41.07
2019-02-08T23:14:38.350Z,34.43
2019-02-08T23:17:12.035Z,41.37
2019-02-08T23:19:45.720Z,35.43
2019-02-08T23:22:19.362Z,37.77
2019-02-08T23:24:52.994Z,36.43
2019-02-08T23:27:26.587Z,40.50
2019-02-08T23:30:00.228Z,37.70
2019-02-08T23:32:33.892Z,46.47
2019-02-08T23:35:09.069Z,33.03
2019-02-08T23:37:42.727Z,39.90
2019-02-08T23:40:17.804Z,37.30
2019-02-08T23:42:51.613Z,30.93
2019-02-08T23:45:25.472Z,36.20
2019-02-08T23:47:59.106Z,38.97
2019-02-08T23:50:32.854Z,36.93
2019-02-08T23:53:07.132Z,39.20
2019-02-08T23:55:40.858Z,41.00
2019-02-08T23:58:14.445Z,42.50
